Time;durP1;ratioP1;P1;durP2;ratioP2;P2;SDS_P1;SDS_P2;PMS_P1;PMS_P2;Temp;Humidity;BMP_temperature;BMP_pressure;BME280_temperature;BME280_humidity;BME280_pressure;Samples;Min_cycle;Max_cycle;Signal;HPM_P1;HPM_P2
2022/09/26 00:01:18;;;;;;;5.15;3.77;;;;;;;12.72;60.83;100859.55;1700041;84;20963;-89
2022/09/26 00:03:53;;;;;;;4.12;2.87;;;;;;;12.72;60.66;100856.09;1696438;84;21346;-90
2022/09/26 00:06:21;;;;;;;3.75;2.80;;;;;;;12.71;60.56;100852.59;1695116;84;21258;-90
2022/09/26 00:08:49;;;;;;;7.55;3.37;;;;;;;12.71;60.50;100849.12;1694711;84;21000;-89
2022/09/26 00:11:24;;;;;;;6.80;2.87;;;;;;;12.71;59.98;100861.80;1695056;84;20992;-89
2022/09/26 00:13:53;;;;;;;4.30;3.92;;;;;;;12.71;59.98;100861.80;1695017;84;20946;-88
2022/09/26 00:16:22;;;;;;;3.58;2.35;;;;;;;12.69;60.45;100852.31;1694728;84;20944;-88
2022/09/26 00:18:52;;;;;;;6.33;3.42;;;;;;;12.69;60.52;100847.05;1694589;84;21851;-91
2022/09/26 00:21:18;;;;;;;4.58;3.35;;;;;;;12.68;60.40;100851.48;1712993;83;20988;-89
2022/09/26 00:23:47;;;;;;;3.22;2.92;;;;;;;12.67;60.38;100851.57;1712918;83;20995;-89
2022/09/26 00:26:15;;;;;;;8.15;3.37;;;;;;;12.65;60.43;100852.53;1712736;82;21404;-89
2022/09/26 00:28:41;;;;;;;3.47;3.17;;;;;;;12.64;60.50;100842.09;1712860;83;20944;-90
2022/09/26 00:31:12;;;;;;;5.33;3.10;;;;;;;12.63;60.55;100839.94;1712833;82;21126;-90
2022/09/26 00:33:38;;;;;;;4.08;3.55;;;;;;;12.63;60.62;100833.84;1711529;83;20936;-90
2022/09/26 00:36:05;;;;;;;7.00;3.05;;;;;;;12.62;60.74;100826.87;1712884;82;20912;-89
2022/09/26 00:38:33;;;;;;;4.35;3.10;;;;;;;12.61;60.87;100823.89;1678236;85;20905;-90
2022/09/26 00:41:00;;;;;;;5.22;2.83;;;;;;;12.59;61.03;100821.34;1678403;85;21064;-89
2022/09/26 00:43:32;;;;;;;2.87;2.52;;;;;;;12.60;61.17;100823.50;1694746;84;21270;-89
2022/09/26 00:46:23;;;;;;;6.80;2.62;;;;;;;12.60;61.34;100820.87;1695448;84;20940;-89
2022/09/26 00:49:19;;;;;;;3.15;2.85;;;;;;;12.60;61.98;100817.76;1695156;84;20949;-90
2022/09/26 00:51:57;;;;;;;3.92;2.62;;;;;;;12.60;62.66;100818.23;1694805;84;20965;-90
2022/09/26 00:54:24;;;;;;;5.95;2.90;;;;;;;12.59;63.15;100816.56;1695443;84;20897;-89
2022/09/26 00:56:52;;;;;;;3.77;3.22;;;;;;;12.56;63.67;100811.03;1694697;84;21225;-91
2022/09/26 01:00:14;;;;;;;5.67;2.83;;;;;;;12.58;64.13;100805.66;1854881;77;22741;-90
2022/09/26 01:02:42;;;;;;;6.05;3.35;;;;;;;12.53;64.56;100799.37;1822770;78;20919;-90
2022/09/26 01:05:11;;;;;;;3.83;3.20;;;;;;;12.52;64.60;100800.81;1790365;78;21139;-89
2022/09/26 01:07:37;;;;;;;2.60;2.22;;;;;;;12.51;64.75;100807.00;1822460;78;20915;-89
2022/09/26 01:10:06;;;;;;;5.12;3.52;;;;;;;12.48;65.10;100800.64;1790504;78;20919;-90
2022/09/26 01:12:37;;;;;;;3.12;2.70;;;;;;;12.48;65.41;100792.75;1822693;78;20923;-90
2022/09/26 01:15:07;;;;;;;3.98;3.12;;;;;;;12.47;65.73;100789.25;1791966;77;21125;-90
2022/09/26 01:17:37;;;;;;;3.60;3.08;;;;;;;12.44;66.03;100785.52;1795003;78;21138;-90
2022/09/26 01:20:28;;;;;;;3.72;2.67;;;;;;;12.45;66.05;100785.91;1824143;78;20885;-88
2022/09/26 01:23:18;;;;;;;3.25;2.87;;;;;;;12.45;66.04;100789.85;1823178;78;20947;-91
2022/09/26 01:26:22;;;;;;;4.83;2.90;;;;;;;12.46;66.26;100787.58;1821182;78;20852;-89
2022/09/26 01:29:29;;;;;;;3.33;3.03;;;;;;;12.47;66.45;100794.52;1822910;78;20887;-88
2022/09/26 01:32:49;;;;;;;6.30;3.33;;;;;;;12.46;66.79;100788.05;1822856;78;21543;-88
2022/09/26 01:35:50;;;;;;;7.53;3.55;;;;;;;12.46;67.15;100788.89;1822940;78;21630;-87
2022/09/26 01:38:47;;;;;;;3.58;2.77;;;;;;;12.45;67.38;100792.48;1823944;77;20991;-89
2022/09/26 01:41:29;;;;;;;7.62;3.72;;;;;;;12.46;67.55;100789.37;1825233;78;20891;-90
2022/09/26 01:44:05;;;;;;;3.42;3.02;;;;;;;12.44;67.75;100786.35;1825522;77;20903;-88
2022/09/26 01:46:51;;;;;;;4.12;3.00;;;;;;;12.44;67.74;100784.20;1825937;77;23248;-90
2022/09/26 01:49:34;;;;;;;5.42;3.67;;;;;;;12.46;67.48;100780.17;1826043;78;20864;-90
2022/09/26 01:52:18;;;;;;;5.40;3.35;;;;;;;12.48;67.31;100773.02;1822911;77;20992;-88
2022/09/26 01:55:13;;;;;;;3.72;3.33;;;;;;;12.51;67.14;100761.81;1826005;78;20892;-89
2022/09/26 01:58:09;;;;;;;4.15;2.92;;;;;;;12.53;67.05;100763.87;1796223;78;20954;-89
2022/09/26 02:00:36;;;;;;;4.92;3.67;;;;;;;12.54;66.99;100754.18;1825005;78;21204;-90
2022/09/26 02:03:07;;;;;;;3.42;2.98;;;;;;;12.56;67.11;100752.30;1824848;78;20899;-88
2022/09/26 02:05:38;;;;;;;5.70;3.58;;;;;;;12.57;67.17;100754.83;1825120;78;20922;-90
2022/09/26 02:08:20;;;;;;;4.33;3.90;;;;;;;12.60;67.29;100752.47;1825039;78;20859;-89
2022/09/26 02:10:53;;;;;;;4.40;3.60;;;;;;;12.62;67.53;100757.16;1824777;77;20891;-90
2022/09/26 02:13:34;;;;;;;5.85;5.20;;;;;;;12.63;67.77;100757.06;1825452;77;21110;-88
2022/09/26 02:16:08;;;;;;;6.20;5.35;;;;;;;12.65;67.92;100761.75;1825018;78;20918;-90
2022/09/26 02:18:43;;;;;;;7.47;3.75;;;;;;;12.69;68.02;100763.69;1824597;78;20856;-89
2022/09/26 02:21:16;;;;;;;6.85;3.72;;;;;;;12.71;68.13;100763.12;1822031;78;20984;-90
2022/09/26 02:23:45;;;;;;;7.05;4.28;;;;;;;12.73;68.25;100761.71;1822374;78;20875;-90
2022/09/26 02:26:12;;;;;;;4.65;3.33;;;;;;;12.74;68.28;100768.20;1821899;78;21117;-89
2022/09/26 02:28:39;;;;;;;6.30;4.47;;;;;;;12.77;68.24;100769.77;1821688;78;20900;-89
2022/09/26 02:31:08;;;;;;;7.45;4.00;;;;;;;12.78;68.23;100768.37;1821781;78;21465;-89
2022/09/26 02:33:35;;;;;;;4.55;3.40;;;;;;;12.78;68.23;100765.73;1821694;78;20884;-90
2022/09/26 02:36:04;;;;;;;5.62;4.20;;;;;;;12.79;68.33;100766.57;1824725;77;20790;-89
2022/09/26 02:38:31;;;;;;;6.30;4.97;;;;;;;12.78;68.39;100765.73;1823762;77;21377;-89
2022/09/26 02:41:27;;;;;;;;;;;;;;;12.79;68.46;100766.09;1797625;78;20860;-89
2022/09/26 02:44:21;;;;;;;6.95;4.35;;;;;;;12.81;68.46;100763.36;1822004;78;20077;-90
2022/09/26 02:47:25;;;;;;;6.28;3.92;;;;;;;12.80;68.58;100759.86;1822014;78;20915;-91
2022/09/26 02:50:21;;;;;;;5.85;4.30;;;;;;;12.79;68.84;100754.25;1821783;78;21405;-90
2022/09/26 02:53:17;;;;;;;6.92;4.85;;;;;;;12.79;69.33;100754.73;1821651;78;21460;-88
2022/09/26 02:55:54;;;;;;;7.47;4.33;;;;;;;12.80;69.79;100757.23;1819841;78;20856;-91
2022/09/26 02:58:42;;;;;;;10.30;5.25;;;;;;;12.82;70.25;100762.41;1821667;78;20959;-90
2022/09/26 03:01:16;;;;;;;5.83;4.58;;;;;;;12.84;70.55;100756.56;1811841;78;20978;-88
2022/09/26 03:04:14;;;;;;;11.73;4.80;;;;;;;12.84;70.79;100752.14;1821601;78;20848;-89
2022/09/26 03:06:45;;;;;;;5.00;3.90;;;;;;;12.86;70.79;100754.20;1823120;78;21415;-89
2022/09/26 03:09:14;;;;;;;6.25;4.47;;;;;;;12.85;70.74;100746.42;1822569;78;21389;-90
2022/09/26 03:11:41;;;;;;;8.15;4.47;;;;;;;12.85;70.77;100746.42;1790638;78;21397;-90
2022/09/26 03:14:07;;;;;;;5.12;4.55;;;;;;;12.85;70.86;100740.69;1821711;78;21029;-93
2022/09/26 03:16:38;;;;;;;5.72;5.20;;;;;;;12.86;70.85;100742.35;1821649;78;21392;-90
2022/09/26 03:19:16;;;;;;;5.53;5.03;;;;;;;12.85;70.88;100745.95;1789890;78;21078;-90
2022/09/26 03:21:44;;;;;;;5.72;4.95;;;;;;;12.83;71.06;100750.95;1821439;78;20844;-89
2022/09/26 03:24:12;;;;;;;9.43;5.28;;;;;;;12.80;71.43;100747.19;1821721;78;20950;-90
2022/09/26 03:26:40;;;;;;;6.35;5.33;;;;;;;12.78;71.82;100742.50;1821576;78;20970;-90
2022/09/26 03:29:07;;;;;;;5.60;4.55;;;;;;;12.76;72.15;100736.05;1821520;78;21046;-90
2022/09/26 03:31:35;;;;;;;7.78;5.45;;;;;;;12.77;72.48;100738.20;1821691;78;21158;-89
2022/09/26 03:34:04;;;;;;;5.67;5.05;;;;;;;12.74;72.81;100742.33;1821130;78;20880;-87
2022/09/26 03:36:31;;;;;;;5.33;4.83;;;;;;;12.71;73.06;100738.12;1821357;78;20907;-90
2022/09/26 03:38:58;;;;;;;9.03;5.17;;;;;;;12.69;73.30;100737.86;1821492;78;20951;-89
2022/09/26 03:41:36;;;;;;;8.40;4.35;;;;;;;12.66;73.45;100736.28;1820586;78;20879;-90
2022/09/26 03:44:07;;;;;;;6.83;4.65;;;;;;;12.65;73.61;100731.50;1820512;78;21460;-90
2022/09/26 03:46:53;;;;;;;6.37;5.20;;;;;;;12.67;73.80;100737.11;1821568;78;20918;-90
2022/09/26 03:49:20;;;;;;;5.65;4.95;;;;;;;12.69;73.99;100733.43;1790209;78;20962;-89
2022/09/26 03:51:46;;;;;;;6.95;4.70;;;;;;;12.71;74.25;100742.06;1821821;78;21475;-90
2022/09/26 03:54:14;;;;;;;9.60;5.47;;;;;;;12.71;74.42;100739.44;1823055;77;20840;-93
2022/09/26 03:56:41;;;;;;;7.10;5.80;;;;;;;12.73;74.53;100737.55;1824885;77;21206;-92
2022/09/26 03:59:10;;;;;;;6.22;4.60;;;;;;;12.76;74.63;100735.17;1823187;78;20950;-91
2022/09/26 04:01:37;;;;;;;6.37;5.08;;;;;;;12.76;74.71;100730.78;1825286;78;20958;-90
2022/09/26 04:04:03;;;;;;;6.45;4.70;;;;;;;12.79;74.76;100734.98;1825116;78;20963;-89
2022/09/26 04:06:31;;;;;;;6.42;4.80;;;;;;;12.82;74.85;100741.35;1825183;78;20915;-89
2022/09/26 04:08:59;;;;;;;7.53;4.70;;;;;;;12.83;74.90;100737.79;1824914;78;21256;-90
2022/09/26 04:11:27;;;;;;;5.70;4.33;;;;;;;12.84;74.98;100740.30;1825209;78;20872;-90
2022/09/26 04:13:54;;;;;;;4.25;3.85;;;;;;;12.87;75.06;100745.81;1825248;78;21458;-89
2022/09/26 04:16:26;;;;;;;5.20;4.50;;;;;;;12.88;75.10;100746.69;1824999;78;20895;-90
2022/09/26 04:18:56;;;;;;;5.25;4.83;;;;;;;12.90;75.11;100747.43;1824935;78;20876;-90
2022/09/26 04:21:23;;;;;;;7.92;4.37;;;;;;;12.92;75.14;100742.91;1825522;78;21850;-91
2022/09/26 04:23:51;;;;;;;9.40;4.60;;;;;;;12.93;75.16;100745.89;1825409;78;20935;-90
2022/09/26 04:26:18;;;;;;;6.33;4.33;;;;;;;12.92;75.23;100741.11;1772760;78;21360;-91
2022/09/26 04:28:46;;;;;;;4.97;4.22;;;;;;;12.93;75.35;100738.83;1825533;78;20867;-89
2022/09/26 04:31:14;;;;;;;5.72;4.47;;;;;;;12.96;75.47;100743.91;1825276;78;21000;-90
2022/09/26 04:33:46;;;;;;;5.47;4.28;;;;;;;13.00;75.54;100740.58;1824398;78;21372;-90
2022/09/26 04:36:14;;;;;;;4.55;4.03;;;;;;;13.04;75.55;100746.00;1825192;78;20844;-90
2022/09/26 04:38:41;;;;;;;8.35;5.10;;;;;;;13.07;75.51;100736.56;1825431;78;20899;-91
2022/09/26 04:41:12;;;;;;;7.97;4.30;;;;;;;13.10;75.43;100732.42;1825209;78;20915;-90
2022/09/26 04:43:41;;;;;;;4.75;4.10;;;;;;;13.12;75.39;100733.16;1824009;78;21329;-90
2022/09/26 04:46:18;;;;;;;5.53;5.00;;;;;;;13.12;75.33;100727.90;1825221;78;21129;-91
2022/09/26 04:48:45;;;;;;;6.62;4.75;;;;;;;13.13;75.34;100730.05;1825168;78;20918;-92
2022/09/26 04:51:14;;;;;;;4.87;4.28;;;;;;;13.12;75.41;100734.48;1825432;78;20923;-93
2022/09/26 04:53:41;;;;;;;6.50;4.90;;;;;;;13.30;76.03;100733.71;1825606;78;20923;-91
2022/09/26 04:56:14;;;;;;;4.87;4.33;;;;;;;13.53;75.49;100728.63;1824703;78;21369;-90
2022/09/26 04:58:42;;;;;;;13.38;4.90;;;;;;;13.72;74.76;100721.09;1825659;78;21237;-90
2022/09/26 05:01:13;;;;;;;5.70;5.20;;;;;;;13.85;74.11;100728.94;1825391;77;21075;-92
2022/09/26 05:03:48;;;;;;;8.90;4.60;;;;;;;13.93;73.67;100724.45;1824167;77;20934;-90
2022/09/26 05:06:16;;;;;;;5.92;4.47;;;;;;;14.02;73.48;100723.30;1821026;76;20927;-89
2022/09/26 05:08:48;;;;;;;6.80;4.47;;;;;;;14.14;73.21;100723.34;1826126;77;20919;-91
2022/09/26 05:11:20;;;;;;;4.47;3.83;;;;;;;14.24;72.93;100725.20;1826663;77;21327;-94
2022/09/26 05:13:49;;;;;;;4.12;3.72;;;;;;;14.34;72.51;100719.24;1827948;76;20860;-91
2022/09/26 05:16:19;;;;;;;7.08;3.47;;;;;;;14.39;72.22;100725.88;1800488;78;20978;-92
2022/09/26 05:18:51;;;;;;;6.28;3.70;;;;;;;14.41;72.01;100733.69;1826279;78;21018;-90
2022/09/26 05:21:18;;;;;;;6.20;4.35;;;;;;;14.42;72.04;100736.67;1826668;78;21030;-90
2022/09/26 05:26:24;;;;;;;11.18;5.72;;;;;;;14.43;72.25;100735.25;1781025;77;20868;-91
2022/09/26 05:29:03;;;;;;;10.60;6.08;;;;;;;14.45;72.39;100739.94;1812508;76;21111;-91
2022/09/26 05:31:33;;;;;;;11.28;8.80;;;;;;;14.48;72.54;100743.66;1826818;77;21040;-91
2022/09/26 05:34:08;;;;;;;12.88;10.25;;;;;;;14.50;72.65;100747.51;1825736;77;20954;-91
2022/09/26 05:36:36;;;;;;;11.18;7.55;;;;;;;14.48;72.97;100744.98;1824437;77;20879;-91
2022/09/26 05:40:55;;;;;;;14.00;6.08;;;;;;;14.49;73.25;100743.17;1825587;77;20920;-92
2022/09/26 05:41:35;;;;;;;11.88;5.78;;;;;;;14.49;73.80;100736.09;1822194;77;20871;-91
2022/09/26 05:44:02;;;;;;;13.60;6.25;;;;;;;14.49;74.22;100745.81;1825856;77;21362;-91
2022/09/26 05:46:32;;;;;;;12.03;5.65;;;;;;;14.51;74.54;100746.05;1798699;78;20939;-90
2022/09/26 05:48:59;;;;;;;12.53;6.80;;;;;;;;;;1826243;77;21106;-91
2022/09/26 05:51:25;;;;;;;14.18;6.25;;;;;;;14.58;75.02;100750.91;1825880;77;20856;-90
2022/09/26 05:53:52;;;;;;;12.35;7.62;;;;;;;14.61;75.15;100757.30;1825894;77;20884;-90
2022/09/26 05:56:22;;;;;;;9.35;6.08;;;;;;;14.64;75.28;100750.46;1799097;78;20974;-92
2022/09/26 05:58:53;;;;;;;11.97;6.17;;;;;;;14.70;75.09;100743.41;1782110;78;21073;-89
2022/09/26 06:01:26;;;;;;;11.97;7.08;;;;;;;14.70;75.09;100743.41;1750301;79;21794;-90
2022/09/26 06:03:55;;;;;;;14.93;6.55;;;;;;;14.79;75.92;100740.07;1798474;79;20876;-89
2022/09/26 06:06:24;;;;;;;20.45;7.47;;;;;;;14.79;75.92;100740.07;1798012;78;20907;-89
2022/09/26 06:08:52;;;;;;;8.35;6.30;;;;;;;14.98;75.31;100735.53;1797427;78;20855;-92
2022/09/26 06:11:31;;;;;;;9.38;6.30;;;;;;;14.98;75.31;100735.53;1798638;78;20888;-91
2022/09/26 06:14:01;;;;;;;13.98;6.55;;;;;;;15.25;75.54;100743.15;1798555;79;21238;-90
2022/09/26 06:16:30;;;;;;;14.53;8.53;;;;;;;15.50;74.78;100741.23;1758817;80;20905;-91
2022/09/26 06:18:57;;;;;;;10.53;6.97;;;;;;;15.70;73.98;100735.69;1759158;80;20924;-92
2022/09/26 06:21:26;;;;;;;24.37;15.98;;;;;;;15.89;73.57;100743.00;1759109;80;20893;-91
2022/09/26 06:23:56;;;;;;;16.48;8.85;;;;;;;16.61;72.89;100738.89;1732545;81;20885;-91
2022/09/26 06:26:27;;;;;;;18.15;9.38;;;;;;;16.61;72.89;100738.89;1758523;80;21940;-90
2022/09/26 06:28:59;;;;;;;15.53;9.33;;;;;;;17.17;71.80;100735.94;1758906;80;20893;-91
2022/09/26 06:31:30;;;;;;;17.70;8.53;;;;;;;17.59;69.62;100746.45;1759880;80;20940;-91
2022/09/26 06:34:11;;;;;;;14.10;7.92;;;;;;;17.87;68.38;100743.53;1761361;79;20968;-89
2022/09/26 06:36:58;;;;;;;13.10;7.75;;;;;;;18.23;67.78;100743.39;1738851;81;20972;-89
2022/09/26 06:39:34;;;;;;;17.02;9.38;;;;;;;18.66;66.67;100741.28;1758993;80;21321;-89
2022/09/26 06:41:55;;;;;;;12.50;8.13;;;;;;;19.02;65.72;100746.34;1758111;80;21452;-91
2022/09/26 06:44:32;;;;;;;14.63;8.58;;;;;;;19.25;64.10;100744.20;1758849;80;21434;-89
2022/09/26 06:47:06;;;;;;;19.02;9.90;;;;;;;19.35;63.44;100751.30;1717954;79;21005;-91
2022/09/26 06:49:36;;;;;;;12.93;9.10;;;;;;;19.40;63.07;100753.84;1798269;78;20876;-92
2022/09/26 06:52:05;;;;;;;19.17;10.32;;;;;;;19.37;62.85;100754.66;1797988;79;21875;-91
2022/09/26 06:54:35;;;;;;;27.93;14.18;;;;;;;19.30;62.77;100758.85;1798089;78;20863;-91
2022/09/26 06:57:04;;;;;;;15.28;9.73;;;;;;;19.21;62.97;100761.92;1798372;79;20836;-93
2022/09/26 06:59:34;;;;;;;16.42;10.90;;;;;;;19.13;63.27;100764.45;1799253;78;20879;-92
2022/09/26 07:02:07;;;;;;;15.35;10.95;;;;;;;19.03;63.64;100764.45;1815362;78;20844;-92
2022/09/26 07:04:49;;;;;;;37.15;27.25;;;;;;;18.94;64.07;100771.50;1794937;78;21803;-92
2022/09/26 07:07:22;;;;;;;27.48;19.57;;;;;;;18.91;64.58;100768.27;1823376;78;20947;-90
2022/09/26 07:09:53;;;;;;;26.12;19.85;;;;;;;18.84;64.73;100767.50;1819614;78;20840;-90
2022/09/26 07:12:25;;;;;;;25.60;16.55;;;;;;;18.86;64.95;100766.05;1787196;78;20915;-92
2022/09/26 07:14:52;;;;;;;18.48;13.13;;;;;;;19.04;65.24;100766.98;1823456;78;20899;-92
2022/09/26 07:17:20;;;;;;;24.55;18.80;;;;;;;19.20;64.58;100764.22;1817584;78;21193;-91
2022/09/26 07:19:59;;;;;;;21.37;16.42;;;;;;;19.49;64.09;100764.61;1796596;78;20876;-90
2022/09/26 07:22:46;;;;;;;17.17;10.98;;;;;;;19.95;63.47;100766.86;1748513;81;20908;-91
2022/09/26 07:25:14;;;;;;;20.55;12.88;;;;;;;20.64;62.34;100767.55;1747720;80;20887;-89
2022/09/26 07:27:42;;;;;;;12.55;9.85;;;;;;;21.17;60.31;100768.94;1747471;82;20906;-91
2022/09/26 07:30:12;;;;;;;13.48;10.45;;;;;;;21.57;58.73;100771.02;1747605;80;21222;-92
2022/09/26 07:32:54;;;;;;;14.43;10.85;;;;;;;21.83;57.58;100766.95;1745637;80;20903;-90
2022/09/26 07:35:12;;;;;;;11.65;8.38;;;;;;;22.08;56.79;100769.18;1745834;81;20942;-91
2022/09/26 07:37:39;;;;;;;12.28;8.68;;;;;;;22.31;55.75;100768.07;1724303;82;20994;-89
2022/09/26 07:40:07;;;;;;;13.03;10.72;;;;;;;22.49;55.20;100768.42;1722535;82;21121;-91
2022/09/26 07:42:36;;;;;;;11.28;8.53;;;;;;;22.65;54.02;100752.37;1746931;82;21131;-91
2022/09/26 07:45:08;;;;;;;11.15;8.73;;;;;;;22.79;53.32;100754.91;1747233;82;21392;-90
2022/09/26 07:50:25;;;;;;;12.43;9.63;;;;;;;22.92;52.83;100763.72;1732876;81;20903;-91
2022/09/26 07:52:59;;;;;;;11.30;9.40;;;;;;;22.95;52.65;100765.57;1757546;78;20927;-90
2022/09/26 07:55:28;;;;;;;11.75;9.13;;;;;;;23.00;52.41;100773.11;1824597;77;21209;-92
2022/09/26 07:58:03;;;;;;;10.63;8.85;;;;;;;23.03;51.98;100767.41;1764863;78;21084;-89
2022/09/26 08:00:49;;;;;;;12.58;9.58;;;;;;;23.07;51.82;100762.57;1823066;78;20926;-93
2022/09/26 08:03:19;;;;;;;14.03;10.40;;;;;;;23.17;51.93;100760.55;1821429;78;20978;-91
2022/09/26 08:05:47;;;;;;;13.32;10.20;;;;;;;23.37;51.66;100761.83;1791604;78;20907;-90
2022/09/26 08:08:14;;;;;;;13.15;9.50;;;;;;;23.71;51.06;100765.21;1823296;78;21227;-90
2022/09/26 08:11:00;;;;;;;26.62;23.80;;;;;;;24.09;50.36;100758.16;1823538;78;20966;-92
2022/09/26 08:13:33;;;;;;;19.40;14.30;;;;;;;24.60;49.70;100761.17;1824268;78;20903;-91
2022/09/26 08:16:08;;;;;;;19.95;16.60;;;;;;;25.04;48.47;100756.92;1822381;78;20970;-90
2022/09/26 08:18:40;;;;;;;14.95;12.13;;;;;;;25.43;47.34;100755.83;1753992;81;20881;-91
2022/09/26 08:21:08;;;;;;;13.50;10.35;;;;;;;25.72;46.28;100758.98;1753646;81;21280;-89
2022/09/26 08:23:36;;;;;;;12.23;10.05;;;;;;;25.90;45.79;100752.41;1751276;80;20901;-90
2022/09/26 08:26:11;;;;;;;12.73;9.78;;;;;;;26.23;45.25;100748.23;1696573;83;20967;-90
2022/09/26 08:28:42;;;;;;;8.83;7.33;;;;;;;26.70;44.17;100742.45;1693804;83;21525;-88
2022/09/26 08:31:14;;;;;;;9.50;7.65;;;;;;;27.00;43.50;100737.70;1697393;83;21357;-90
2022/09/26 08:33:43;;;;;;;7.87;5.85;;;;;;;27.42;42.50;100737.25;1697235;83;21146;-91
2022/09/26 08:36:13;;;;;;;8.40;6.87;;;;;;;27.78;41.37;100734.80;1697569;83;21138;-92
2022/09/26 08:38:41;;;;;;;6.80;5.78;;;;;;;28.10;40.20;100728.69;1674889;84;21429;-91
2022/09/26 08:41:52;;;;;;;8.23;7.33;;;;;;;28.37;39.27;100719.77;1651059;83;20975;-90
2022/09/26 08:44:55;;;;;;;9.45;8.00;;;;;;;28.61;38.74;100719.18;1694040;83;20936;-89
2022/09/26 08:47:48;;;;;;;6.85;6.08;;;;;;;28.99;38.21;100713.10;1661843;85;21291;-90
2022/09/26 08:50:37;;;;;;;10.85;8.08;;;;;;;29.41;37.16;100714.16;1702131;84;20931;-90
2022/09/26 08:53:16;;;;;;;13.58;11.70;;;;;;;29.77;36.49;100709.56;1706519;83;20994;-91
2022/09/26 08:55:49;;;;;;;8.53;7.25;;;;;;;30.07;35.65;100703.54;1705859;83;21406;-91
2022/09/26 08:58:25;;;;;;;8.43;7.62;;;;;;;30.31;35.38;100701.94;1707483;84;20912;-90
2022/09/26 09:00:57;;;;;;;7.40;6.22;;;;;;;30.48;34.54;100701.69;1707260;84;21105;-91
2022/09/26 09:03:35;;;;;;;9.45;7.62;;;;;;;30.50;34.47;100703.62;1766104;78;20872;-93
2022/09/26 09:06:12;;;;;;;7.33;6.58;;;;;;;30.46;34.38;100707.00;1823306;78;20883;-90
2022/09/26 09:08:51;;;;;;;5.35;4.45;;;;;;;30.32;34.46;100709.81;1823226;78;20927;-89
2022/09/26 09:11:52;;;;;;;4.95;3.65;;;;;;;30.27;35.23;100704.25;1793450;78;20868;-90
2022/09/26 09:14:40;;;;;;;;;;;;;;;30.36;35.14;100708.33;1826728;78;21186;-90
2022/09/26 09:17:45;;;;;;;5.65;4.12;;;;;;;30.49;35.23;100715.52;1824151;77;20091;-90
2022/09/26 09:20:46;;;;;;;8.05;5.17;;;;;;;30.58;35.20;100707.95;1818749;78;20916;-90
2022/09/26 09:23:59;;;;;;;9.83;4.22;;;;;;;30.73;35.11;100701.66;1818610;78;20895;-91
2022/09/26 09:26:38;;;;;;;6.53;4.25;;;;;;;30.81;34.56;100701.88;1821986;78;20915;-91
2022/09/26 09:29:28;;;;;;;5.70;4.40;;;;;;;30.49;34.76;100695.75;1822082;78;21127;-92
2022/09/26 09:32:18;;;;;;;15.05;12.20;;;;;;;30.28;35.00;100690.19;1822265;78;20836;-92
2022/09/26 09:34:49;;;;;;;11.10;7.33;;;;;;;30.32;35.25;100694.94;1819517;78;20959;-91
2022/09/26 09:37:27;;;;;;;11.60;9.30;;;;;;;30.44;34.71;100696.41;1794339;78;20900;-90
2022/09/26 09:39:55;;;;;;;10.63;9.63;;;;;;;30.57;34.31;100680.55;1792320;78;20876;-91
2022/09/26 09:42:47;;;;;;;4.95;3.83;;;;;;;30.63;33.88;100679.67;1822054;78;21299;-91
2022/09/26 09:45:19;;;;;;;6.03;4.40;;;;;;;30.67;33.54;100680.06;1821871;78;20879;-90
2022/09/26 09:47:48;;;;;;;5.90;4.60;;;;;;;30.79;33.38;100672.84;1822055;78;20966;-89
2022/09/26 09:50:21;;;;;;;17.73;14.63;;;;;;;30.97;32.81;100670.20;1821888;78;20895;-92
2022/09/26 09:53:11;;;;;;;6.83;6.12;;;;;;;31.04;32.64;100664.70;1795610;78;20993;-93
2022/09/26 09:55:48;;;;;;;5.08;4.03;;;;;;;30.59;32.77;100664.92;1821355;78;21262;-91
2022/09/26 09:58:45;;;;;;;5.62;4.22;;;;;;;30.07;33.69;100671.08;1807769;78;21041;-91
2022/09/26 10:01:29;;;;;;;11.15;6.12;;;;;;;29.81;34.48;100664.80;1823515;78;20931;-90
2022/09/26 10:04:07;;;;;;;6.45;4.80;;;;;;;29.73;34.98;100664.55;1825826;78;20931;-94
2022/09/26 10:06:34;;;;;;;3.45;3.15;;;;;;;29.76;35.28;100663.28;1826789;78;20888;-92
2022/09/26 10:09:25;;;;;;;6.28;5.08;;;;;;;29.98;35.32;100657.53;1825783;78;20832;-93
2022/09/26 10:11:57;;;;;;;;;;;;;;;30.19;34.94;100665.25;1797400;78;20851;-92
2022/09/26 10:14:56;;;;;;;7.47;4.72;;;;;;;30.34;34.90;100665.78;1780225;78;20384;-91
2022/09/26 10:17:43;;;;;;;4.58;3.67;;;;;;;30.52;34.74;100650.09;1825301;78;21400;-92
2022/09/26 10:20:41;;;;;;;5.72;2.80;;;;;;;30.63;34.53;100651.78;1772014;78;20987;-93
2022/09/26 10:23:19;;;;;;;7.08;5.45;;;;;;;30.61;33.91;100647.11;1822820;78;21453;-91
2022/09/26 10:25:48;;;;;;;12.55;10.50;;;;;;;30.50;33.33;100635.95;1827006;78;20915;-93
2022/09/26 10:28:28;;;;;;;6.55;3.15;;;;;;;30.49;33.55;100634.85;1825997;78;20876;-94
2022/09/26 10:31:07;;;;;;;11.90;5.90;;;;;;;30.60;33.17;100631.41;1826790;78;20860;-92
2022/09/26 10:33:40;;;;;;;5.62;4.05;;;;;;;30.41;33.38;100636.48;1799404;78;20939;-91
2022/09/26 10:36:21;;;;;;;12.03;10.60;;;;;;;30.04;33.39;100628.26;1801056;78;21324;-91
2022/09/26 10:41:45;;;;;;;10.23;9.20;;;;;;;29.64;34.75;100626.63;1828402;78;20900;-90
2022/09/26 10:44:25;;;;;;;11.68;10.48;;;;;;;29.47;34.95;100623.60;1826567;78;20899;-91
2022/09/26 10:47:07;;;;;;;8.88;6.83;;;;;;;29.32;35.20;100617.13;1821376;78;21021;-92
2022/09/26 10:49:39;;;;;;;15.83;14.35;;;;;;;29.24;35.56;100617.92;1818379;78;21478;-91
2022/09/26 10:52:14;;;;;;;48.60;44.55;;;;;;;29.30;35.28;100616.55;1826824;78;21087;-91
2022/09/26 10:54:47;;;;;;;4.47;4.08;;;;;;;29.20;34.45;100609.41;1826650;78;20915;-93
2022/09/26 10:57:26;;;;;;;6.87;3.95;;;;;;;29.02;34.82;100616.02;1825792;78;20852;-91
2022/09/26 10:59:55;;;;;;;6.72;4.33;;;;;;;28.83;35.30;100619.90;1826684;78;20887;-91
2022/09/26 11:02:23;;;;;;;4.50;3.45;;;;;;;28.76;35.62;100612.88;1826692;78;21173;-90
2022/09/26 11:08:04;;;;;;;3.42;3.00;;;;;;;28.31;35.71;100606.81;1731458;82;20967;-94
2022/09/26 11:10:35;;;;;;;4.03;2.60;;;;;;;28.10;36.30;100586.27;1731318;83;21428;-90
2022/09/26 11:13:18;;;;;;;4.12;3.30;;;;;;;27.99;36.58;100599.89;1726528;83;20926;-88
2022/09/26 11:16:00;;;;;;;6.50;2.98;;;;;;;27.96;37.15;100594.06;1731835;83;21090;-92
2022/09/26 11:18:53;;;;;;;58.02;53.08;;;;;;;27.93;36.63;100589.92;1726521;81;20911;-90
2022/09/26 11:21:44;;;;;;;7.67;6.55;;;;;;;27.82;37.06;100587.29;1733881;80;21017;-90
2022/09/26 11:24:36;;;;;;;5.62;4.45;;;;;;;27.65;37.60;100582.81;1733336;80;21013;-90
2022/09/26 11:27:30;;;;;;;4.67;2.80;;;;;;;27.44;38.08;100586.52;1731621;80;21033;-89
2022/09/26 11:30:08;;;;;;;7.50;5.17;;;;;;;27.29;38.09;100589.37;1733151;80;21236;-90
2022/09/26 11:32:40;;;;;;;7.37;3.45;;;;;;;27.12;38.85;100582.64;1732784;80;20927;-88
2022/09/26 11:35:50;;;;;;;4.47;4.08;;;;;;;26.90;38.70;100570.34;1702240;83;20875;-90
2022/09/26 11:38:38;;;;;;;4.25;3.37;;;;;;;26.73;39.00;100569.36;1741758;80;20990;-88
2022/09/26 11:41:37;;;;;;;3.27;2.98;;;;;;;26.62;39.11;100572.61;1795743;80;20884;-89
2022/09/26 11:44:37;;;;;;;9.23;3.40;;;;;;;26.50;39.14;100566.08;1781235;79;21162;-89
2022/09/26 11:47:56;;;;;;;4.12;3.05;;;;;;;26.34;38.97;100566.70;1795329;79;20973;-89
2022/09/26 11:50:52;;;;;;;2.98;2.42;;;;;;;26.05;39.10;100571.25;1793317;78;20966;-90
2022/09/26 11:54:00;;;;;;;4.25;2.70;;;;;;;25.73;39.47;100566.42;1794131;78;20951;-88
2022/09/26 11:56:54;;;;;;;24.75;22.50;;;;;;;25.41;39.43;100567.23;1794577;80;21290;-91
2022/09/26 12:00:02;;;;;;;12.53;10.78;;;;;;;24.99;39.73;100570.13;1786316;80;21170;-90
2022/09/26 12:02:54;;;;;;;3.95;3.50;;;;;;;24.73;40.70;100570.13;1790902;80;20984;-91
2022/09/26 12:05:30;;;;;;;4.53;2.95;;;;;;;24.52;40.49;100560.16;1795158;78;20982;-91
2022/09/26 12:08:37;;;;;;;29.25;23.98;;;;;;;24.36;41.00;100561.11;1794461;79;20935;-91
2022/09/26 12:11:51;;;;;;;5.12;4.72;;;;;;;24.26;41.55;100561.08;1752831;80;20945;-91
2022/09/26 12:14:42;;;;;;;6.60;5.53;;;;;;;24.15;41.94;100552.98;1794435;79;21287;-87
2022/09/26 12:17:58;;;;;;;5.80;4.53;;;;;;;24.04;41.22;100554.25;1792749;80;21396;-90